This is the latest recevied weather packets stored in our database for station/object K4M9. If no packets are shown the sender has not sent any weather packets the latest 10 day(s).
| Time | Temp. | Humidity | Pressure | Rain* | Wind** | Luminosity | Snow |
|---|---|---|---|---|---|---|---|
| 1777782807 | 11.67° C | 66% | 1020.7 hPa | - | - | - | - |
| 1777782227 | 11.67° C | 66% | 1020.7 hPa | - | - | - | - |
| 1777781607 | 12.78° C | 62% | 1020.3 hPa | - | - | - | - |
| 1777781130 | 12.78° C | 62% | 1020.3 hPa | - | - | - | - |
| 1777780410 | 12.78° C | 62% | 1020.3 hPa | - | - | - | - |
| 1777779807 | 12.78° C | 62% | 1020.3 hPa | - | - | - | - |
| 1777779213 | 13.89° C | 62% | 1020.3 hPa | - | - | - | - |
| 1777778610 | 13.89° C | 62% | 1020.3 hPa | - | - | - | - |
| 1777778012 | 13.89° C | 58% | 1020 hPa | - | - | - | - |
| 1777777406 | 13.89° C | 58% | 1020 hPa | - | - | - | - |
| 1777776808 | 13.89° C | 54% | 1020 hPa | - | - | - | - |
| 1777776206 | 13.89° C | 54% | 1020 hPa | - | - | - | - |
| 1777775608 | 15° C | 47% | 1019.3 hPa | - | - | - | - |
| 1777775005 | 15° C | 47% | 1019.3 hPa | - | - | - | - |
| 1777774408 | 15° C | 47% | 1019.3 hPa | - | - | - | - |
| 1777773809 | 15° C | 47% | 1019.3 hPa | - | - | - | - |
| 1777773209 | 15.56° C | 44% | 1019.3 hPa | - | - | - | - |
| 1777772612 | 15.56° C | 44% | 1019.3 hPa | - | - | - | - |
| 1777772010 | 15.56° C | 41% | 1019 hPa | - | - | - | - |
| 1777771405 | 15.56° C | 41% | 1019 hPa | - | - | - | - |
| 1777770805 | 16.67° C | 39% | 1018.6 hPa | - | - | - | - |
| 1777770206 | 16.67° C | 39% | 1018.6 hPa | - | - | - | - |
| 1777769606 | 17.78° C | 34% | 1018.6 hPa | - | - | - | - |
| 1777769008 | 17.78° C | 34% | 1018.6 hPa | - | - | - | - |
| 1777768407 | 18.89° C | 32% | 1018.3 hPa | - | - | - | - |
* Rain since midnight (hover to see other rain measurements)
** Current wind speed in m/s (hover to see current wind gust speed)